createdAt,value
2024-05-09T00:00:15.527Z,99.70
2024-05-09T00:01:10.622Z,99.92
2024-05-09T00:02:09.646Z,100.18
2024-05-09T00:03:11.315Z,100.99
2024-05-09T00:04:09.659Z,101.66
2024-05-09T00:05:09.732Z,102.05
2024-05-09T00:06:09.979Z,101.40
2024-05-09T00:07:09.794Z,101.19
2024-05-09T00:08:10.308Z,100.21
2024-05-09T00:09:09.848Z,99.83
2024-05-09T00:10:17.850Z,100.25
2024-05-09T00:11:11.045Z,100.34
2024-05-09T00:12:10.088Z,100.48
2024-05-09T00:13:10.591Z,100.64
2024-05-09T00:14:10.040Z,99.93
2024-05-09T00:15:09.891Z,99.96
2024-05-09T00:16:09.894Z,99.32
2024-05-09T00:17:09.977Z,99.92
2024-05-09T00:18:10.088Z,99.69
2024-05-09T00:19:10.124Z,98.69
2024-05-09T00:20:17.494Z,97.76
2024-05-09T00:21:11.087Z,97.93
2024-05-09T00:22:09.936Z,98.09
2024-05-09T00:23:09.979Z,98.36
2024-05-09T00:24:09.966Z,98.14
2024-05-09T00:25:09.921Z,97.82
2024-05-09T00:26:09.984Z,98.46
2024-05-09T00:27:13.160Z,98.38
2024-05-09T00:28:09.938Z,100.15
2024-05-09T00:29:09.990Z,98.97
2024-05-09T00:30:14.559Z,97.73
2024-05-09T00:31:10.970Z,98.00
2024-05-09T00:32:10.075Z,98.33
2024-05-09T00:33:11.062Z,98.56
2024-05-09T00:34:10.258Z,98.62
2024-05-09T00:35:10.018Z,97.82
2024-05-09T00:36:09.971Z,98.07
2024-05-09T00:37:09.974Z,97.47
2024-05-09T00:38:09.984Z,97.86
2024-05-09T00:39:09.957Z,97.18
2024-05-09T00:40:15.283Z,97.12
2024-05-09T00:41:11.278Z,97.25
2024-05-09T00:42:09.968Z,97.48
2024-05-09T00:43:10.193Z,97.21
2024-05-09T00:44:10.020Z,97.38
2024-05-09T00:45:11.012Z,96.85
2024-05-09T00:46:09.998Z,95.71
2024-05-09T00:47:10.145Z,96.00
2024-05-09T00:48:11.066Z,95.36
2024-05-09T00:49:10.160Z,95.62
2024-05-09T00:50:15.763Z,95.37
2024-05-09T00:51:11.278Z,95.52
2024-05-09T00:52:09.986Z,95.68
2024-05-09T00:53:10.144Z,95.75
2024-05-09T00:54:10.001Z,96.54
2024-05-09T00:55:10.003Z,96.75
2024-05-09T00:56:10.085Z,94.61
2024-05-09T00:57:15.420Z,95.53
2024-05-09T00:58:10.058Z,95.71
2024-05-09T00:59:10.140Z,95.96
2024-05-09T01:00:22.085Z,95.99
2024-05-09T01:01:11.213Z,95.69
2024-05-09T01:02:10.245Z,95.89
2024-05-09T01:03:12.076Z,96.08
2024-05-09T01:04:10.254Z,95.64
2024-05-09T01:05:10.275Z,95.86
2024-05-09T01:06:10.138Z,95.32
2024-05-09T01:07:10.141Z,94.72
2024-05-09T01:08:10.680Z,94.24
2024-05-09T01:09:10.152Z,94.77
2024-05-09T01:10:14.342Z,93.39
2024-05-09T01:11:11.364Z,93.69
2024-05-09T01:12:10.383Z,93.88
2024-05-09T01:13:10.145Z,94.29
2024-05-09T01:14:10.212Z,94.64
2024-05-09T01:15:10.154Z,93.20
2024-05-09T01:16:13.130Z,93.87
2024-05-09T01:17:10.189Z,94.95
2024-05-09T01:18:10.865Z,94.54
2024-05-09T01:19:10.291Z,94.59
2024-05-09T01:20:12.985Z,94.57
2024-05-09T01:21:11.387Z,94.72
2024-05-09T01:22:10.196Z,94.77
2024-05-09T01:23:10.475Z,94.76
2024-05-09T01:24:10.213Z,94.47
2024-05-09T01:25:10.169Z,94.11
2024-05-09T01:26:10.217Z,93.69
2024-05-09T01:27:10.191Z,93.23
2024-05-09T01:28:10.181Z,92.26
2024-05-09T01:29:10.262Z,91.72
2024-05-09T01:30:16.992Z,91.23
2024-05-09T01:31:11.193Z,91.40
2024-05-09T01:32:10.311Z,91.65
2024-05-09T01:33:11.880Z,91.60
2024-05-09T01:34:10.342Z,92.20
2024-05-09T01:35:10.403Z,91.86
2024-05-09T01:36:10.400Z,92.92
2024-05-09T01:37:10.450Z,91.67
2024-05-09T01:38:10.522Z,92.35
2024-05-09T01:39:10.568Z,91.42
2024-05-09T01:40:15.007Z,91.25
2024-05-09T01:41:11.642Z,91.40
2024-05-09T01:42:10.645Z,91.56
2024-05-09T01:43:11.724Z,91.49
2024-05-09T01:44:10.680Z,90.92
2024-05-09T01:45:10.632Z,90.69
2024-05-09T01:46:10.618Z,91.31
2024-05-09T01:47:10.766Z,89.53
2024-05-09T01:48:11.349Z,89.04
2024-05-09T01:49:10.691Z,89.55
2024-05-09T01:50:11.135Z,89.30
2024-05-09T01:51:10.820Z,90.24
2024-05-09T01:52:10.645Z,89.59
2024-05-09T01:53:10.897Z,89.30
2024-05-09T01:54:10.724Z,89.00
2024-05-09T01:55:10.805Z,88.80
2024-05-09T01:56:10.844Z,89.57
2024-05-09T01:57:10.898Z,88.81
2024-05-09T01:58:11.003Z,89.24
2024-05-09T01:59:11.077Z,87.94
2024-05-09T02:00:15.601Z,88.49
2024-05-09T02:01:11.287Z,88.60
2024-05-09T02:02:11.289Z,88.59
2024-05-09T02:03:14.087Z,88.92
2024-05-09T02:04:12.210Z,88.62
2024-05-09T02:05:11.342Z,88.95
2024-05-09T02:06:11.549Z,88.85
2024-05-09T02:07:11.205Z,88.96
2024-05-09T02:08:11.448Z,90.10
2024-05-09T02:09:11.221Z,88.92
2024-05-09T02:10:16.717Z,88.12
2024-05-09T02:11:12.258Z,88.27
2024-05-09T02:12:11.425Z,88.29
2024-05-09T02:13:11.215Z,88.45
2024-05-09T02:14:11.193Z,88.40
2024-05-09T02:15:11.126Z,87.59
2024-05-09T02:16:11.242Z,87.80
2024-05-09T02:17:11.259Z,85.34
2024-05-09T02:18:11.559Z,88.54
2024-05-09T02:19:11.381Z,87.32
2024-05-09T02:20:18.772Z,87.78
2024-05-09T02:21:12.211Z,87.87
2024-05-09T02:22:11.237Z,87.94
2024-05-09T02:23:11.397Z,87.67
2024-05-09T02:24:11.168Z,87.91
2024-05-09T02:25:11.207Z,87.00
2024-05-09T02:26:11.295Z,85.81
2024-05-09T02:27:11.265Z,85.69
2024-05-09T02:28:11.257Z,86.00
2024-05-09T02:29:11.336Z,85.05
2024-05-09T02:30:18.774Z,86.46
2024-05-09T02:31:12.176Z,86.58
2024-05-09T02:32:11.227Z,86.60
2024-05-09T02:33:13.317Z,86.68
2024-05-09T02:34:11.254Z,87.23
2024-05-09T02:35:11.220Z,86.73
2024-05-09T02:36:11.186Z,85.72
2024-05-09T02:37:11.173Z,85.82
2024-05-09T02:38:11.323Z,85.65
2024-05-09T02:39:11.171Z,85.23
2024-05-09T02:40:14.753Z,85.78
2024-05-09T02:41:12.284Z,85.98
2024-05-09T02:42:12.142Z,86.14
2024-05-09T02:43:12.029Z,86.36
2024-05-09T02:44:11.264Z,85.52
2024-05-09T02:45:11.212Z,85.61
2024-05-09T02:46:11.189Z,84.84
2024-05-09T02:47:14.398Z,86.00
2024-05-09T02:48:11.859Z,85.89
2024-05-09T02:49:11.395Z,88.00
2024-05-09T02:51:11.628Z,85.38
2024-05-09T02:52:11.249Z,84.60
2024-05-09T02:53:11.295Z,84.10
2024-05-09T02:54:11.208Z,84.62
2024-05-09T02:55:11.213Z,83.46
2024-05-09T02:56:11.276Z,84.20
2024-05-09T02:57:11.299Z,84.27
2024-05-09T02:58:11.401Z,83.54
2024-05-09T02:59:11.463Z,83.28
2024-05-09T03:00:18.502Z,81.22
2024-05-09T03:01:13.052Z,81.40
2024-05-09T03:02:11.565Z,81.96
2024-05-09T03:03:13.903Z,82.30
2024-05-09T03:04:11.584Z,81.43
2024-05-09T03:05:11.666Z,81.84
2024-05-09T03:06:11.568Z,81.96
2024-05-09T03:07:11.501Z,82.81
2024-05-09T03:08:11.564Z,83.46
2024-05-09T03:09:11.497Z,83.21
2024-05-09T03:10:18.374Z,81.93
2024-05-09T03:11:12.616Z,82.10
2024-05-09T03:12:11.641Z,82.40
2024-05-09T03:13:11.815Z,82.73
2024-05-09T03:14:11.537Z,82.28
2024-05-09T03:15:18.791Z,50.00
2024-05-09T03:16:18.777Z,50.00
2024-05-09T03:17:18.838Z,50.00
2024-05-09T03:18:18.820Z,50.00
2024-05-09T03:19:18.955Z,50.00
2024-05-09T03:20:23.720Z,50.00
2024-05-09T03:21:19.817Z,50.16
2024-05-09T03:22:18.799Z,50.06
2024-05-09T03:23:18.810Z,47.70
2024-05-09T03:24:18.801Z,45.48
2024-05-09T03:25:18.827Z,45.22
2024-05-09T03:26:18.899Z,50.94
2024-05-09T03:27:18.807Z,51.35
2024-05-09T03:28:18.780Z,51.00
2024-05-09T03:29:18.856Z,50.40
2024-05-09T03:30:26.121Z,50.68
2024-05-09T03:31:19.833Z,50.86
2024-05-09T03:32:18.912Z,51.07
2024-05-09T03:33:20.269Z,51.48
2024-05-09T03:34:18.889Z,50.82
2024-05-09T03:35:18.928Z,50.96
2024-05-09T03:36:18.793Z,50.23
2024-05-09T03:37:18.845Z,50.93
2024-05-09T03:38:18.862Z,51.11
2024-05-09T03:39:18.808Z,51.22
2024-05-09T03:40:23.611Z,51.70
2024-05-09T03:41:19.854Z,51.85
2024-05-09T03:42:18.805Z,51.90
2024-05-09T03:43:18.888Z,51.87
2024-05-09T03:44:18.867Z,52.20
2024-05-09T03:45:19.404Z,49.65
2024-05-09T03:46:18.834Z,50.51
2024-05-09T03:47:18.864Z,50.08
2024-05-09T03:48:19.123Z,51.01
2024-05-09T03:49:18.927Z,50.39
2024-05-09T03:50:26.069Z,51.01
2024-05-09T03:51:19.903Z,51.16
2024-05-09T03:52:18.835Z,51.38
2024-05-09T03:53:18.871Z,51.41
2024-05-09T03:54:18.884Z,51.24
2024-05-09T03:55:18.867Z,51.54
2024-05-09T03:56:18.968Z,50.20
2024-05-09T03:57:18.871Z,51.41
2024-05-09T03:58:18.840Z,51.45
2024-05-09T03:59:18.942Z,51.11
2024-05-09T04:00:26.539Z,50.72
2024-05-09T04:01:19.924Z,50.93
2024-05-09T04:02:18.947Z,51.22
2024-05-09T04:03:19.231Z,51.23
2024-05-09T04:04:18.869Z,51.25
2024-05-09T04:05:19.495Z,51.50
2024-05-09T04:06:18.877Z,50.81
2024-05-09T04:07:18.903Z,50.95
2024-05-09T04:08:18.981Z,51.37
2024-05-09T04:09:18.869Z,52.16
2024-05-09T04:10:27.402Z,51.37
2024-05-09T04:11:20.032Z,51.53
2024-05-09T04:12:18.948Z,51.72
2024-05-09T04:13:18.884Z,51.58
2024-05-09T04:14:18.992Z,52.08
2024-05-09T04:15:18.895Z,51.88
2024-05-09T04:16:18.896Z,51.30
2024-05-09T04:17:18.937Z,51.14
2024-05-09T04:18:19.022Z,51.36
2024-05-09T04:19:19.030Z,51.51
2024-05-09T04:20:29.060Z,50.42
2024-05-09T04:21:19.890Z,50.59
2024-05-09T04:22:18.906Z,50.81
2024-05-09T04:23:18.967Z,50.99
2024-05-09T04:24:18.892Z,51.28
2024-05-09T04:25:18.936Z,51.13
2024-05-09T04:26:18.919Z,51.55
2024-05-09T04:27:18.935Z,51.09
2024-05-09T04:28:18.922Z,51.64
2024-05-09T04:29:18.941Z,50.12
2024-05-09T04:30:26.262Z,51.20
2024-05-09T04:31:19.928Z,51.37
2024-05-09T04:32:18.992Z,51.39
2024-05-09T04:33:19.187Z,51.58
2024-05-09T04:34:18.959Z,51.54
2024-05-09T04:35:18.983Z,51.04
2024-05-09T04:36:18.931Z,50.59
2024-05-09T04:37:18.939Z,50.39
2024-05-09T04:38:19.101Z,50.69
2024-05-09T04:39:18.930Z,50.54
2024-05-09T04:40:27.800Z,50.94
2024-05-09T04:41:20.089Z,51.07
2024-05-09T04:42:18.982Z,51.12
2024-05-09T04:43:19.149Z,51.15
2024-05-09T04:44:19.019Z,51.05
2024-05-09T04:45:18.961Z,50.28
2024-05-09T04:46:18.957Z,50.47
2024-05-09T04:47:19.065Z,50.76
2024-05-09T04:48:19.129Z,50.14
2024-05-09T04:49:19.001Z,50.77
2024-05-09T04:50:29.024Z,52.01
2024-05-09T04:51:19.969Z,52.12
2024-05-09T04:52:18.954Z,52.43
2024-05-09T04:53:19.082Z,52.21
2024-05-09T04:55:18.979Z,53.24
2024-05-09T04:56:18.987Z,52.22
2024-05-09T04:57:18.982Z,51.46
2024-05-09T04:58:18.983Z,51.92
2024-05-09T04:59:19.141Z,51.13
2024-05-09T05:00:28.567Z,50.63
2024-05-09T05:01:20.033Z,50.91
2024-05-09T05:02:22.558Z,51.34
2024-05-09T05:03:19.296Z,50.88
2024-05-09T05:04:19.115Z,51.11
2024-05-09T05:05:19.087Z,51.42
2024-05-09T05:06:19.012Z,51.87
2024-05-09T05:07:19.008Z,50.69
2024-05-09T05:08:19.648Z,50.20
2024-05-09T05:09:19.015Z,50.42
2024-05-09T05:10:25.428Z,50.99
2024-05-09T05:11:20.122Z,51.20
2024-05-09T05:12:19.091Z,51.43
2024-05-09T05:13:20.371Z,51.90
2024-05-09T05:14:19.199Z,51.59
2024-05-09T05:15:19.199Z,51.53
2024-05-09T05:16:19.246Z,50.97
2024-05-09T05:17:19.381Z,51.20
2024-05-09T05:18:19.689Z,50.60
2024-05-09T05:19:19.457Z,50.89
2024-05-09T05:20:27.395Z,50.52
2024-05-09T05:21:20.547Z,50.70
2024-05-09T05:22:27.825Z,50.94
2024-05-09T05:23:19.592Z,50.91
2024-05-09T05:24:19.486Z,51.48
2024-05-09T05:25:19.574Z,51.96
2024-05-09T05:26:19.621Z,52.55
2024-05-09T05:27:19.651Z,53.68
2024-05-09T05:28:19.705Z,52.74
2024-05-09T05:29:20.867Z,51.49
2024-05-09T05:30:25.090Z,51.45
2024-05-09T05:31:20.834Z,51.61
2024-05-09T05:32:19.989Z,51.97
2024-05-09T05:33:20.296Z,51.51
2024-05-09T05:34:19.794Z,51.53
2024-05-09T05:35:19.842Z,52.27
2024-05-09T05:36:19.780Z,50.49
2024-05-09T05:37:19.984Z,50.49
2024-05-09T05:38:21.920Z,51.76
2024-05-09T05:39:19.832Z,51.83
2024-05-09T05:40:28.167Z,51.80
2024-05-09T05:41:20.829Z,51.98
2024-05-09T05:42:19.794Z,52.16
2024-05-09T05:43:19.804Z,52.39
2024-05-09T05:44:19.846Z,52.69
2024-05-09T05:45:19.813Z,51.44
2024-05-09T05:46:19.822Z,50.75
2024-05-09T05:47:19.915Z,50.65
2024-05-09T05:48:20.010Z,50.39
2024-05-09T05:49:20.065Z,50.20
2024-05-09T05:50:27.409Z,51.65
2024-05-09T05:51:20.866Z,51.79
2024-05-09T05:52:19.821Z,51.87
2024-05-09T05:53:19.858Z,52.18
2024-05-09T05:54:19.835Z,50.91
2024-05-09T05:55:19.848Z,52.02
2024-05-09T05:56:19.967Z,52.58
2024-05-09T05:57:19.878Z,50.97
2024-05-09T05:58:19.861Z,50.00
2024-05-09T05:59:19.877Z,51.50
2024-05-09T06:00:29.240Z,50.56
2024-05-09T06:01:20.901Z,50.76
2024-05-09T06:02:19.964Z,50.90
2024-05-09T06:03:19.856Z,51.05
2024-05-09T06:04:19.866Z,50.82
2024-05-09T06:05:19.892Z,50.76
2024-05-09T06:06:19.858Z,51.62
2024-05-09T06:07:19.971Z,51.54
2024-05-09T06:08:19.926Z,51.14
2024-05-09T06:09:19.841Z,51.43
2024-05-09T06:10:25.454Z,51.22
2024-05-09T06:11:21.009Z,51.34
2024-05-09T06:12:19.991Z,51.56
2024-05-09T06:13:19.863Z,51.39
2024-05-09T06:14:19.899Z,51.55
2024-05-09T06:15:19.870Z,50.06
2024-05-09T06:16:19.858Z,50.83
2024-05-09T06:17:20.044Z,51.63
2024-05-09T06:18:20.206Z,50.98
2024-05-09T06:19:20.043Z,50.31
2024-05-09T06:20:24.083Z,53.37
2024-05-09T06:21:20.988Z,53.46
2024-05-09T06:22:19.861Z,53.50
2024-05-09T06:23:19.949Z,52.40
2024-05-09T06:24:19.873Z,52.05
2024-05-09T06:25:19.880Z,52.89
2024-05-09T06:26:19.928Z,51.65
2024-05-09T06:27:19.890Z,51.19
2024-05-09T06:28:19.901Z,50.68
2024-05-09T06:29:20.009Z,51.38
2024-05-09T06:30:29.897Z,51.49
2024-05-09T06:31:20.903Z,51.63
2024-05-09T06:32:20.071Z,51.83
2024-05-09T06:33:20.060Z,51.71
2024-05-09T06:34:19.966Z,51.73
2024-05-09T06:35:19.956Z,51.58
2024-05-09T06:36:19.887Z,52.16
2024-05-09T06:37:19.890Z,51.60
2024-05-09T06:38:20.089Z,50.62
2024-05-09T06:39:19.901Z,51.41
2024-05-09T06:40:25.692Z,50.65
2024-05-09T06:41:20.976Z,50.81
2024-05-09T06:42:19.896Z,51.14
2024-05-09T06:43:20.179Z,51.49
2024-05-09T06:44:19.966Z,50.97
2024-05-09T06:45:19.930Z,51.09
2024-05-09T06:46:19.923Z,51.72
2024-05-09T06:47:19.981Z,51.67
2024-05-09T06:48:20.498Z,50.71
2024-05-09T06:49:20.183Z,52.64
2024-05-09T06:50:24.145Z,51.53
2024-05-09T06:51:21.003Z,51.67
2024-05-09T06:52:19.925Z,51.85
2024-05-09T06:53:19.996Z,51.60
2024-05-09T06:54:19.940Z,52.07
2024-05-09T06:55:19.947Z,50.99
2024-05-09T06:56:20.024Z,51.11
2024-05-09T06:57:19.927Z,51.47
2024-05-09T06:58:19.957Z,51.16
2024-05-09T06:59:20.000Z,50.67
2024-05-09T07:00:27.703Z,50.41
2024-05-09T07:01:21.026Z,50.54
2024-05-09T07:02:20.077Z,50.45
2024-05-09T07:03:20.177Z,50.55
2024-05-09T07:04:20.159Z,51.00
2024-05-09T07:05:20.015Z,50.82
2024-05-09T07:06:19.957Z,50.24
2024-05-09T07:07:19.965Z,51.52
2024-05-09T07:08:20.066Z,51.88
2024-05-09T07:09:19.969Z,50.04
2024-05-09T07:10:28.448Z,50.62
2024-05-09T07:11:21.081Z,50.77
2024-05-09T07:12:20.059Z,50.95
2024-05-09T07:13:20.012Z,50.42
2024-05-09T07:14:20.008Z,51.12
2024-05-09T07:15:19.981Z,50.56
2024-05-09T07:16:19.987Z,50.00
2024-05-09T07:17:20.095Z,50.63
2024-05-09T07:18:20.738Z,51.30
2024-05-09T07:19:20.193Z,51.30
2024-05-09T07:20:27.649Z,53.04
2024-05-09T07:21:21.038Z,53.15
2024-05-09T07:22:19.996Z,53.31
2024-05-09T07:23:20.132Z,51.97
2024-05-09T07:24:20.042Z,52.20
2024-05-09T07:25:20.009Z,52.52
2024-05-09T07:26:20.062Z,51.04
2024-05-09T07:27:20.000Z,51.97
2024-05-09T07:28:20.066Z,50.98
2024-05-09T07:29:20.054Z,50.36
2024-05-09T07:30:27.100Z,50.78
2024-05-09T07:31:21.032Z,50.92
2024-05-09T07:32:20.090Z,51.09
2024-05-09T07:33:21.541Z,51.52
2024-05-09T07:34:20.128Z,53.52
2024-05-09T07:35:20.053Z,53.61
2024-05-09T07:36:20.064Z,50.91
2024-05-09T07:37:20.030Z,50.86
2024-05-09T07:38:20.219Z,50.56
2024-05-09T07:39:20.045Z,50.82
2024-05-09T07:40:28.213Z,51.76
2024-05-09T07:41:21.156Z,51.97
2024-05-09T07:42:20.062Z,52.36
2024-05-09T07:43:20.037Z,52.52
2024-05-09T07:44:20.164Z,52.41
2024-05-09T07:45:40.111Z,50.80
2024-05-09T07:48:57.332Z,50.00
2024-05-09T07:50:33.273Z,50.00
2024-05-09T07:53:08.588Z,50.00
2024-05-09T07:53:33.054Z,50.00
2024-05-09T07:53:40.674Z,50.00
2024-05-09T07:54:32.440Z,50.00
2024-05-09T07:55:31.488Z,50.00
2024-05-09T07:57:31.236Z,50.00
2024-05-09T07:58:31.233Z,50.00
2024-05-09T07:59:33.383Z,50.23
2024-05-09T08:00:32.162Z,50.32
2024-05-09T08:01:31.275Z,50.48
2024-05-09T08:02:31.385Z,49.03
2024-05-09T08:03:31.453Z,47.25
2024-05-09T08:04:31.400Z,46.02
2024-05-09T08:05:31.512Z,50.00
2024-05-09T08:06:31.325Z,50.44
2024-05-09T08:07:31.229Z,51.71
2024-05-09T08:08:31.249Z,50.79
2024-05-09T08:09:31.267Z,51.14
2024-05-09T08:10:31.312Z,51.50
2024-05-09T08:11:31.338Z,50.89
2024-05-09T08:12:31.279Z,50.96
2024-05-09T08:13:31.270Z,50.81
2024-05-09T08:14:31.277Z,51.08
2024-05-09T08:15:31.277Z,51.17
2024-05-09T08:16:31.375Z,51.92
2024-05-09T08:17:31.362Z,50.90
2024-05-09T08:18:31.754Z,51.91
2024-05-09T08:19:31.294Z,50.84
2024-05-09T08:20:35.103Z,51.38
2024-05-09T08:21:31.316Z,51.52
2024-05-09T08:22:31.281Z,51.64
2024-05-09T08:23:31.272Z,51.65
2024-05-09T08:24:31.288Z,51.31
2024-05-09T08:25:31.249Z,50.39
2024-05-09T08:26:31.254Z,51.64
2024-05-09T08:27:31.311Z,50.83
2024-05-09T08:28:31.259Z,50.69
2024-05-09T08:29:31.272Z,51.16
2024-05-09T08:30:36.543Z,51.15
2024-05-09T08:31:32.365Z,51.31
2024-05-09T08:32:31.407Z,51.42
2024-05-09T08:33:31.551Z,52.26
2024-05-09T08:34:31.413Z,52.04
2024-05-09T08:35:31.316Z,52.36
2024-05-09T08:36:31.341Z,53.05
2024-05-09T08:37:36.650Z,51.34
2024-05-09T08:38:32.317Z,51.49
2024-05-09T08:39:31.342Z,51.85
2024-05-09T08:40:35.277Z,51.66
2024-05-09T08:41:32.354Z,51.58
2024-05-09T08:42:31.353Z,51.79
2024-05-09T08:43:31.406Z,52.09
2024-05-09T08:44:31.330Z,51.79
2024-05-09T08:45:31.469Z,52.82
2024-05-09T08:46:31.348Z,51.71
2024-05-09T08:47:31.380Z,50.83
2024-05-09T08:48:31.455Z,51.19
2024-05-09T08:49:31.378Z,51.28
2024-05-09T08:50:37.936Z,51.12
2024-05-09T08:51:32.363Z,51.28
2024-05-09T08:52:31.352Z,51.58
2024-05-09T08:53:31.336Z,51.54
2024-05-09T08:54:31.366Z,51.48
2024-05-09T08:55:31.316Z,51.94
2024-05-09T08:56:31.315Z,52.34
2024-05-09T08:57:31.336Z,51.27
2024-05-09T08:58:31.328Z,51.10
2024-05-09T08:59:31.335Z,51.39
2024-05-09T09:00:36.851Z,50.63
2024-05-09T09:01:32.471Z,50.81
2024-05-09T09:02:31.554Z,50.96
2024-05-09T09:03:31.689Z,51.29
2024-05-09T09:04:31.436Z,51.81
2024-05-09T09:05:31.996Z,51.00
2024-05-09T09:06:31.442Z,52.29
2024-05-09T09:07:31.367Z,51.99
2024-05-09T09:08:31.340Z,52.05
2024-05-09T09:09:31.475Z,51.53
2024-05-09T09:10:32.812Z,51.16
2024-05-09T09:11:31.474Z,53.36
2024-05-09T09:12:31.418Z,53.32
2024-05-09T09:13:31.360Z,50.80
2024-05-09T09:14:31.375Z,51.75
2024-05-09T09:15:31.457Z,51.79
2024-05-09T09:16:31.431Z,51.80
2024-05-09T09:17:31.409Z,52.22
2024-05-09T09:18:31.597Z,51.32
2024-05-09T09:19:31.507Z,51.86
2024-05-09T09:20:36.321Z,52.13
2024-05-09T09:21:32.440Z,52.30
2024-05-09T09:22:31.386Z,52.44
2024-05-09T09:23:31.385Z,52.29
2024-05-09T09:24:31.449Z,52.60
2024-05-09T09:25:31.515Z,53.57
2024-05-09T09:26:31.411Z,53.01
2024-05-09T09:27:31.404Z,50.66
2024-05-09T09:28:31.372Z,51.97
2024-05-09T09:29:31.377Z,52.82
2024-05-09T09:30:36.727Z,51.86
2024-05-09T09:31:32.429Z,52.07
2024-05-09T09:32:31.501Z,52.02
2024-05-09T09:33:31.694Z,52.07
2024-05-09T09:34:31.924Z,51.98
2024-05-09T09:35:31.400Z,52.61
2024-05-09T09:36:31.469Z,51.34
2024-05-09T09:37:31.392Z,51.00
2024-05-09T09:38:31.393Z,53.12
2024-05-09T09:39:31.457Z,52.97
2024-05-09T09:40:33.786Z,52.90
2024-05-09T09:41:31.391Z,53.02
2024-05-09T09:42:31.468Z,53.39
2024-05-09T09:43:31.426Z,53.77
2024-05-09T09:44:31.440Z,52.72
2024-05-09T09:45:31.474Z,52.78
2024-05-09T09:46:31.448Z,53.01
2024-05-09T09:47:31.487Z,51.30
2024-05-09T09:48:31.552Z,52.93
2024-05-09T09:49:31.455Z,52.48
2024-05-09T09:50:34.607Z,52.62
2024-05-09T09:51:31.492Z,52.70
2024-05-09T09:52:31.462Z,53.02
2024-05-09T09:53:31.443Z,53.17
2024-05-09T09:54:31.479Z,53.58
2024-05-09T09:55:31.461Z,55.39
2024-05-09T09:56:31.427Z,51.18
2024-05-09T09:57:31.452Z,52.68
2024-05-09T09:58:31.487Z,50.96
2024-05-09T09:59:31.441Z,51.73
2024-05-09T10:00:33.411Z,52.04
2024-05-09T10:01:31.720Z,52.18
2024-05-09T10:02:31.824Z,51.56
2024-05-09T10:03:31.814Z,51.61
2024-05-09T10:04:31.778Z,51.53
2024-05-09T10:05:31.774Z,50.60
2024-05-09T10:06:31.739Z,50.00
2024-05-09T10:07:31.660Z,52.68
2024-05-09T10:08:31.705Z,53.26
2024-05-09T10:09:31.779Z,53.45
2024-05-09T10:10:33.068Z,51.74
2024-05-09T10:11:34.793Z,52.01
2024-05-09T10:12:31.850Z,52.05
2024-05-09T10:13:31.781Z,50.35
2024-05-09T10:14:31.736Z,53.38
2024-05-09T10:15:31.804Z,51.04
2024-05-09T10:16:31.788Z,51.18
2024-05-09T10:17:31.852Z,50.00
2024-05-09T10:18:34.113Z,52.44
2024-05-09T10:19:31.857Z,52.59
2024-05-09T10:20:32.943Z,53.01
2024-05-09T10:21:31.803Z,53.60
2024-05-09T10:22:31.752Z,54.58
2024-05-09T10:23:31.799Z,52.06
2024-05-09T10:24:31.778Z,50.97
2024-05-09T10:25:31.851Z,51.61
2024-05-09T10:26:31.770Z,54.75
2024-05-09T10:27:31.768Z,51.96
2024-05-09T10:28:31.784Z,51.73
2024-05-09T10:29:31.795Z,54.28
2024-05-09T10:30:35.961Z,52.78
2024-05-09T10:31:32.890Z,53.05
2024-05-09T10:32:31.833Z,53.33
2024-05-09T10:33:31.937Z,53.76
2024-05-09T10:34:31.919Z,54.01
2024-05-09T10:35:31.776Z,54.69
2024-05-09T10:36:31.874Z,53.00
2024-05-09T10:37:31.873Z,54.12
2024-05-09T10:38:31.765Z,53.78
2024-05-09T10:39:31.863Z,50.96
2024-05-09T10:40:32.251Z,51.72
2024-05-09T10:41:31.824Z,53.36
2024-05-09T10:42:31.854Z,52.46
2024-05-09T10:43:31.877Z,51.08
2024-05-09T10:44:31.898Z,52.09
2024-05-09T10:45:32.094Z,51.42
2024-05-09T10:46:32.020Z,52.17
2024-05-09T10:47:32.142Z,52.75
2024-05-09T10:48:32.162Z,54.29
2024-05-09T10:49:32.145Z,50.00
2024-05-09T10:50:34.383Z,54.62
2024-05-09T10:51:32.401Z,53.85
2024-05-09T10:52:32.365Z,53.07
2024-05-09T10:53:32.448Z,52.01
2024-05-09T10:54:32.611Z,50.40
2024-05-09T10:55:32.537Z,53.44
2024-05-09T10:56:32.546Z,53.23
2024-05-09T10:57:32.591Z,54.23
2024-05-09T10:58:42.694Z,53.83
2024-05-09T10:59:32.611Z,54.21
2024-05-09T11:00:35.972Z,54.93
2024-05-09T11:01:32.724Z,54.18
2024-05-09T11:02:32.946Z,54.80
2024-05-09T11:03:32.707Z,54.97
2024-05-09T11:04:32.666Z,55.97
2024-05-09T11:05:32.817Z,54.82
2024-05-09T11:06:32.676Z,54.11
2024-05-09T11:07:32.642Z,55.72
2024-05-09T11:08:32.863Z,54.98
2024-05-09T11:09:32.669Z,53.70
2024-05-09T11:10:34.385Z,53.46
2024-05-09T11:11:32.657Z,52.90
2024-05-09T11:12:32.680Z,54.10
2024-05-09T11:13:32.608Z,53.75
2024-05-09T11:14:32.601Z,52.83
2024-05-09T11:15:32.631Z,51.44
2024-05-09T11:16:32.688Z,54.87
2024-05-09T11:17:32.835Z,53.42
2024-05-09T11:18:36.526Z,52.10
2024-05-09T11:19:33.836Z,52.26
2024-05-09T11:20:35.041Z,52.53
2024-05-09T11:21:32.804Z,54.14
2024-05-09T11:22:32.764Z,54.34
2024-05-09T11:23:32.764Z,55.49
2024-05-09T11:24:32.853Z,52.34
2024-05-09T11:25:32.740Z,52.92
2024-05-09T11:26:32.772Z,55.05
2024-05-09T11:27:32.828Z,52.36
2024-05-09T11:28:32.776Z,53.38
2024-05-09T11:29:32.763Z,53.59
2024-05-09T11:30:32.861Z,52.91
2024-05-09T11:31:33.062Z,53.19
2024-05-09T11:32:33.099Z,52.33
2024-05-09T11:33:32.864Z,53.03
2024-05-09T11:34:32.979Z,51.99
2024-05-09T11:35:32.755Z,50.98
2024-05-09T11:36:32.943Z,51.58
2024-05-09T11:37:35.404Z,54.41
2024-05-09T11:38:32.761Z,54.58
2024-05-09T11:39:32.873Z,54.48
2024-05-09T11:40:34.564Z,54.58
2024-05-09T11:41:32.762Z,52.56
2024-05-09T11:42:32.866Z,53.41
2024-05-09T11:43:32.881Z,51.94
2024-05-09T11:44:32.763Z,53.53
2024-05-09T11:45:32.845Z,52.25
2024-05-09T11:46:32.791Z,53.14
2024-05-09T11:47:32.880Z,53.04
2024-05-09T11:48:33.019Z,55.19
2024-05-09T11:49:33.129Z,51.74
2024-05-09T11:50:35.772Z,54.36
2024-05-09T11:51:33.065Z,53.91
2024-05-09T11:52:33.056Z,55.00
2024-05-09T11:53:33.038Z,53.61
2024-05-09T11:54:33.038Z,52.72
2024-05-09T11:55:32.991Z,54.01
2024-05-09T11:56:32.989Z,53.49
2024-05-09T11:57:33.114Z,51.11
2024-05-09T11:58:33.010Z,52.66
2024-05-09T11:59:33.013Z,51.66
2024-05-09T12:00:37.025Z,53.15
2024-05-09T12:01:33.171Z,53.33
2024-05-09T12:02:33.078Z,53.75
2024-05-09T12:03:33.131Z,53.89
2024-05-09T12:04:33.173Z,50.25
2024-05-09T12:05:34.127Z,54.13
2024-05-09T12:06:33.038Z,51.28
2024-05-09T12:07:33.024Z,50.67
2024-05-09T12:08:33.028Z,51.88
2024-05-09T12:09:33.065Z,52.51
2024-05-09T12:10:35.535Z,52.29
2024-05-09T12:11:33.082Z,56.30
2024-05-09T12:12:35.466Z,51.70
2024-05-09T12:13:33.090Z,51.98
2024-05-09T12:14:33.010Z,52.20
2024-05-09T12:15:33.158Z,53.02
2024-05-09T12:16:33.305Z,52.83
2024-05-09T12:17:33.114Z,52.94
2024-05-09T12:18:33.108Z,55.11
2024-05-09T12:19:40.456Z,50.00
2024-05-09T12:20:40.517Z,50.00
2024-05-09T12:21:40.419Z,50.00
2024-05-09T12:22:40.392Z,50.00
2024-05-09T12:23:40.416Z,50.00
2024-05-09T12:24:40.548Z,50.00
2024-05-09T12:25:40.591Z,51.68
2024-05-09T12:26:40.570Z,51.55
2024-05-09T12:27:40.730Z,50.00
2024-05-09T12:28:40.755Z,53.03
2024-05-09T12:29:40.690Z,52.91
2024-05-09T12:30:41.425Z,52.15
2024-05-09T12:31:40.872Z,52.99
2024-05-09T12:32:40.893Z,53.94
2024-05-09T12:33:40.883Z,52.94
2024-05-09T12:34:40.912Z,51.28
2024-05-09T12:35:42.713Z,50.16
2024-05-09T12:36:41.007Z,53.68
2024-05-09T12:37:40.953Z,53.82
2024-05-09T12:38:40.966Z,53.81
2024-05-09T12:39:40.939Z,51.41
2024-05-09T12:40:41.039Z,52.22
2024-05-09T12:41:40.942Z,52.60
2024-05-09T12:42:40.998Z,53.07
2024-05-09T12:43:40.992Z,53.49
2024-05-09T12:44:40.962Z,51.04
2024-05-09T12:45:41.037Z,52.17
2024-05-09T12:46:40.955Z,54.12
2024-05-09T12:47:41.029Z,53.36
2024-05-09T12:48:41.125Z,51.49
2024-05-09T12:49:40.961Z,52.59
2024-05-09T12:50:41.412Z,51.75
2024-05-09T12:51:40.991Z,52.61
2024-05-09T12:52:40.948Z,52.19
2024-05-09T12:53:40.955Z,53.00
2024-05-09T12:54:40.998Z,52.51
2024-05-09T12:55:48.377Z,52.93
2024-05-09T12:56:41.964Z,53.09
2024-05-09T12:57:41.043Z,53.40
2024-05-09T12:58:41.013Z,54.07